createdAt,value
2023-02-12T00:01:00.302Z,12.63
2023-02-12T00:03:28.440Z,13.63
2023-02-12T00:05:56.622Z,13.82
2023-02-12T00:08:24.665Z,13.77
2023-02-12T00:10:52.618Z,13.80
2023-02-12T00:13:20.651Z,11.85
2023-02-12T00:15:48.679Z,12.85
2023-02-12T00:18:18.056Z,15.20
2023-02-12T00:20:46.025Z,14.18
2023-02-12T00:23:14.014Z,13.32
2023-02-12T00:25:43.515Z,14.65
2023-02-12T00:28:11.664Z,14.98
2023-02-12T00:30:39.700Z,14.05
2023-02-12T00:33:07.764Z,15.77
2023-02-12T00:35:37.137Z,15.23
2023-02-12T00:38:05.309Z,12.93
2023-02-12T00:40:33.360Z,13.27
2023-02-12T00:43:01.356Z,13.30
2023-02-12T00:45:29.309Z,15.43
2023-02-12T00:47:57.345Z,15.40
2023-02-12T00:50:25.295Z,14.25
2023-02-12T00:52:54.646Z,14.52
2023-02-12T00:55:22.717Z,13.82
2023-02-12T00:57:50.689Z,14.65
2023-02-12T01:00:18.961Z,14.25
2023-02-12T01:02:47.014Z,15.82
2023-02-12T01:05:15.051Z,14.70
2023-02-12T01:07:43.027Z,13.80
2023-02-12T01:10:12.734Z,14.27
2023-02-12T01:12:40.709Z,15.05
2023-02-12T01:15:10.564Z,15.15
2023-02-12T01:17:38.702Z,17.67
2023-02-12T01:20:08.475Z,17.38
2023-02-12T01:22:37.282Z,16.20
2023-02-12T01:25:05.473Z,16.42
2023-02-12T01:27:35.429Z,16.02
2023-02-12T01:30:03.772Z,16.00
2023-02-12T01:32:31.765Z,19.27
2023-02-12T01:34:59.742Z,18.25
2023-02-12T01:37:27.824Z,18.35
2023-02-12T01:39:55.823Z,18.20
2023-02-12T01:42:23.855Z,18.70
2023-02-12T01:45:25.190Z,18.73
2023-02-12T01:47:54.540Z,18.65
2023-02-12T01:50:22.635Z,21.08
2023-02-12T01:52:55.235Z,18.45
2023-02-12T01:55:23.378Z,17.75
2023-02-12T01:57:51.849Z,16.35
2023-02-12T02:00:22.313Z,16.58
2023-02-12T02:02:54.004Z,16.30
2023-02-12T02:05:29.258Z,15.73
2023-02-12T02:07:57.717Z,15.30
2023-02-12T02:10:25.717Z,16.70
2023-02-12T02:13:10.949Z,16.25
2023-02-12T02:15:42.858Z,16.33
2023-02-12T02:18:16.397Z,15.82
2023-02-12T02:21:17.496Z,18.42
2023-02-12T02:24:00.445Z,16.00
2023-02-12T02:26:44.098Z,15.07
2023-02-12T02:29:26.829Z,16.77
2023-02-12T02:32:00.336Z,15.85
2023-02-12T02:34:35.359Z,15.20
2023-02-12T02:37:15.236Z,17.27
2023-02-12T02:39:48.582Z,17.40
2023-02-12T02:42:22.121Z,16.65
2023-02-12T02:44:54.176Z,17.63
2023-02-12T02:47:32.550Z,17.33
2023-02-12T02:50:05.122Z,17.80
2023-02-12T02:52:38.558Z,17.23
2023-02-12T02:55:09.927Z,15.55
2023-02-12T02:57:42.823Z,17.50
2023-02-12T03:00:17.090Z,18.48
2023-02-12T03:02:51.307Z,18.15
2023-02-12T03:05:22.915Z,18.25
2023-02-12T03:07:53.738Z,17.50
2023-02-12T03:10:25.027Z,19.17
2023-02-12T03:12:56.794Z,16.35
2023-02-12T03:15:31.820Z,16.63
2023-02-12T03:18:05.106Z,17.33
2023-02-12T03:20:40.537Z,16.90
2023-02-12T03:23:12.619Z,14.82
2023-02-12T03:25:50.239Z,17.40
2023-02-12T03:28:22.567Z,18.15
2023-02-12T03:30:55.234Z,22.90
2023-02-12T03:33:34.459Z,22.13
2023-02-12T03:36:07.858Z,19.30
2023-02-12T03:38:40.102Z,20.52
2023-02-12T03:41:13.096Z,18.90
2023-02-12T03:43:51.058Z,22.00
2023-02-12T03:46:22.702Z,20.17
2023-02-12T03:49:00.727Z,19.08
2023-02-12T03:51:35.280Z,19.58
2023-02-12T03:54:05.144Z,20.25
2023-02-12T03:56:38.528Z,20.00
2023-02-12T03:59:06.932Z,23.13
2023-02-12T04:01:36.366Z,21.25
2023-02-12T04:04:08.081Z,25.63
2023-02-12T04:06:36.474Z,26.50
2023-02-12T04:09:07.240Z,29.23
2023-02-12T04:11:45.089Z,30.00
2023-02-12T04:14:23.913Z,27.13
2023-02-12T04:17:00.353Z,28.52
2023-02-12T04:19:35.871Z,27.70
2023-02-12T04:22:16.688Z,28.98
2023-02-12T04:24:51.951Z,29.25
2023-02-12T04:27:26.861Z,30.02
2023-02-12T04:30:00.693Z,26.40
2023-02-12T04:35:10.069Z,25.08
2023-02-12T04:37:42.457Z,28.05
2023-02-12T04:40:13.956Z,26.70
2023-02-12T04:42:46.539Z,24.92
2023-02-12T04:45:17.206Z,22.90
2023-02-12T04:47:45.235Z,24.40
2023-02-12T04:50:15.449Z,26.83
2023-02-12T04:52:43.418Z,24.77
2023-02-12T04:55:11.625Z,24.88
2023-02-12T04:57:39.725Z,24.08
2023-02-12T05:00:09.617Z,22.33
2023-02-12T05:02:37.725Z,23.23
2023-02-12T05:05:06.485Z,24.67
2023-02-12T05:07:35.941Z,25.15
2023-02-12T05:10:03.996Z,22.63
2023-02-12T05:12:32.023Z,25.00
2023-02-12T05:14:59.989Z,23.23
2023-02-12T05:17:27.993Z,22.95
2023-02-12T05:19:55.974Z,20.00
2023-02-12T05:22:24.266Z,22.00
2023-02-12T05:24:53.638Z,19.88
2023-02-12T05:27:21.664Z,22.23
2023-02-12T05:29:49.662Z,19.58
2023-02-12T05:32:17.745Z,20.42
2023-02-12T05:34:45.717Z,21.17
2023-02-12T05:37:13.694Z,23.15
2023-02-12T05:39:41.681Z,21.20
2023-02-12T05:42:11.088Z,22.30
2023-02-12T05:44:39.098Z,24.08
2023-02-12T05:47:07.054Z,23.08
2023-02-12T05:49:35.053Z,24.70
2023-02-12T05:52:03.050Z,25.48
2023-02-12T05:54:31.067Z,26.52
2023-02-12T05:56:59.069Z,23.73
2023-02-12T05:59:28.429Z,24.38
2023-02-12T06:01:56.458Z,23.45
2023-02-12T06:04:26.397Z,25.50
2023-02-12T06:06:55.895Z,22.77
2023-02-12T06:09:24.448Z,21.58
2023-02-12T06:11:52.499Z,25.40
2023-02-12T06:14:21.872Z,24.67
2023-02-12T06:16:52.870Z,25.42
2023-02-12T06:19:22.181Z,26.25
2023-02-12T06:21:50.142Z,26.85
2023-02-12T06:24:18.841Z,24.95
2023-02-12T06:26:50.091Z,24.00
2023-02-12T06:29:18.396Z,24.23
2023-02-12T06:31:46.511Z,23.08
2023-02-12T06:34:18.171Z,22.70
2023-02-12T06:36:48.027Z,24.77
2023-02-12T06:39:17.718Z,24.58
2023-02-12T06:41:46.042Z,24.80
2023-02-12T06:44:14.608Z,23.98
2023-02-12T06:46:42.677Z,25.00
2023-02-12T06:49:13.685Z,24.67
2023-02-12T06:51:43.442Z,24.15
2023-02-12T06:54:15.001Z,21.95
2023-02-12T06:56:43.040Z,23.88
2023-02-12T06:59:14.785Z,24.13
2023-02-12T07:01:44.195Z,24.95
2023-02-12T07:04:12.863Z,24.05
2023-02-12T07:06:42.542Z,22.48
2023-02-12T07:09:10.803Z,22.98
2023-02-12T07:11:39.189Z,23.35
2023-02-12T07:14:07.589Z,23.67
2023-02-12T07:16:35.862Z,24.23
2023-02-12T07:19:03.979Z,26.58
2023-02-12T07:21:32.212Z,30.75
2023-02-12T07:24:01.816Z,32.92
2023-02-12T07:26:30.105Z,29.90
2023-02-12T07:28:59.622Z,31.60
2023-02-12T07:31:27.726Z,30.42
2023-02-12T07:33:57.216Z,28.52
2023-02-12T07:36:26.823Z,32.17
2023-02-12T07:38:55.666Z,30.50
2023-02-12T07:41:26.879Z,30.08
2023-02-12T07:43:57.106Z,30.50
2023-02-12T07:46:29.880Z,28.63
2023-02-12T07:48:59.332Z,28.70
2023-02-12T07:51:28.255Z,31.55
2023-02-12T07:53:56.650Z,30.23
2023-02-12T07:56:30.957Z,26.30
2023-02-12T07:59:00.782Z,23.80
2023-02-12T08:01:30.879Z,22.48
2023-02-12T08:04:01.735Z,24.58
2023-02-12T08:06:31.927Z,26.75
2023-02-12T08:09:01.511Z,34.70
2023-02-12T08:11:31.835Z,24.23
2023-02-12T08:13:59.938Z,21.25
2023-02-12T08:16:29.828Z,18.88
2023-02-12T08:19:10.726Z,28.50
2023-02-12T08:21:44.033Z,25.08
2023-02-12T08:24:12.298Z,23.27
2023-02-12T08:26:41.921Z,22.77
2023-02-12T08:29:12.579Z,20.15
2023-02-12T08:31:42.608Z,23.70
2023-02-12T08:34:19.080Z,20.05
2023-02-12T08:36:48.231Z,25.17
2023-02-12T08:39:16.741Z,24.65
2023-02-12T08:41:46.267Z,26.05
2023-02-12T08:44:15.679Z,27.00
2023-02-12T08:46:47.282Z,23.10
2023-02-12T08:49:17.869Z,18.00
2023-02-12T08:51:48.851Z,21.65
2023-02-12T08:54:18.877Z,19.00
2023-02-12T08:56:48.358Z,17.45
2023-02-12T08:59:18.158Z,20.10
2023-02-12T09:01:46.187Z,22.10
2023-02-12T09:04:18.143Z,18.75
2023-02-12T09:06:47.332Z,21.55
2023-02-12T09:09:16.097Z,21.00
2023-02-12T09:11:44.967Z,19.70
2023-02-12T09:14:16.784Z,20.48
2023-02-12T09:16:45.568Z,20.65
2023-02-12T09:19:15.810Z,17.55
2023-02-12T09:21:44.149Z,19.85
2023-02-12T09:24:12.167Z,21.92
2023-02-12T09:26:40.933Z,19.55
2023-02-12T09:29:08.991Z,19.13
2023-02-12T09:31:38.469Z,25.67
2023-02-12T09:34:07.866Z,34.92
2023-02-12T09:36:36.846Z,30.00
2023-02-12T09:39:05.788Z,31.00
2023-02-12T09:41:51.323Z,28.20
2023-02-12T09:44:24.149Z,25.25
2023-02-12T09:46:58.897Z,26.73
2023-02-12T09:49:43.189Z,33.47
2023-02-12T09:54:42.901Z,31.10
2023-02-12T09:57:19.858Z,31.25
2023-02-12T09:59:52.938Z,41.45
2023-02-12T10:02:24.242Z,32.10
2023-02-12T10:05:01.613Z,44.85
2023-02-12T10:08:03.550Z,35.30
2023-02-12T10:10:48.443Z,35.58
2023-02-12T10:13:27.550Z,42.50
2023-02-12T10:16:01.979Z,38.20
2023-02-12T10:18:57.624Z,30.60
2023-02-12T10:21:43.557Z,39.58
2023-02-12T10:24:28.635Z,34.10
2023-02-12T10:27:01.359Z,32.95
2023-02-12T10:29:35.254Z,39.35
2023-02-12T10:32:06.653Z,28.08
2023-02-12T10:34:38.001Z,37.70
2023-02-12T10:37:12.647Z,34.45
2023-02-12T10:39:44.971Z,30.75
2023-02-12T10:42:17.554Z,30.55
2023-02-12T10:44:45.629Z,31.65
2023-02-12T10:47:19.836Z,26.85
2023-02-12T10:49:54.064Z,37.60
2023-02-12T10:52:35.389Z,32.08
2023-02-12T10:55:03.644Z,33.30
2023-02-12T10:57:32.757Z,40.30
2023-02-12T11:00:24.029Z,34.50
2023-02-12T11:03:03.414Z,34.25
2023-02-12T11:05:35.883Z,26.73
2023-02-12T11:08:04.160Z,30.83
2023-02-12T11:10:34.305Z,24.05
2023-02-12T11:13:04.009Z,30.27
2023-02-12T11:15:38.543Z,18.73
2023-02-12T11:18:08.636Z,24.58
2023-02-12T11:20:43.651Z,30.13
2023-02-12T11:23:26.339Z,20.77
2023-02-12T11:26:00.534Z,25.95
2023-02-12T11:28:29.730Z,23.63
2023-02-12T11:31:00.192Z,27.58
2023-02-12T11:33:34.784Z,26.30
2023-02-12T11:36:07.873Z,28.00
2023-02-12T11:38:39.636Z,27.35
2023-02-12T11:41:26.252Z,21.27
2023-02-12T11:43:54.714Z,19.65
2023-02-12T11:46:25.590Z,18.25
2023-02-12T11:48:54.994Z,20.05
2023-02-12T11:51:29.418Z,25.35
2023-02-12T11:54:01.077Z,20.08
2023-02-12T11:56:43.067Z,20.65
2023-02-12T11:59:21.981Z,21.58
2023-02-12T12:01:53.375Z,18.75
2023-02-12T12:04:26.962Z,12.45
2023-02-12T12:07:01.849Z,19.02
2023-02-12T12:09:36.773Z,16.40
2023-02-12T12:12:14.278Z,16.48
2023-02-12T12:15:05.419Z,18.42
2023-02-12T12:17:59.796Z,14.65
2023-02-12T12:20:33.636Z,19.38
2023-02-12T12:25:40.197Z,14.60
2023-02-12T12:28:19.913Z,17.73
2023-02-12T12:30:58.496Z,17.40
2023-02-12T12:33:35.302Z,14.88
2023-02-12T12:36:23.273Z,17.88
2023-02-12T12:39:03.719Z,16.25
2023-02-12T12:41:50.005Z,18.27
2023-02-12T12:44:32.374Z,11.65
2023-02-12T12:47:16.796Z,14.65
2023-02-12T12:50:10.596Z,18.02
2023-02-12T12:53:01.881Z,14.50
2023-02-12T12:56:00.794Z,15.07
2023-02-12T12:58:40.542Z,19.17
2023-02-12T13:01:37.111Z,22.40
2023-02-12T13:04:48.789Z,21.10
2023-02-12T13:07:32.847Z,13.63
2023-02-12T13:10:21.039Z,19.10
2023-02-12T13:13:05.519Z,19.10
2023-02-12T13:15:42.416Z,18.40
2023-02-12T13:18:24.202Z,18.05
2023-02-12T13:21:03.214Z,17.67
2023-02-12T13:23:40.876Z,14.15
2023-02-12T13:26:18.610Z,18.75
2023-02-12T13:28:54.309Z,17.25
2023-02-12T13:31:34.309Z,11.50
2023-02-12T13:34:05.046Z,12.63
2023-02-12T13:36:34.563Z,13.55
2023-02-12T13:39:11.614Z,13.63
2023-02-12T13:41:41.468Z,13.48
2023-02-12T13:44:21.656Z,13.73
2023-02-12T13:47:01.575Z,17.42
2023-02-12T13:49:42.687Z,19.88
2023-02-12T13:52:19.143Z,25.67
2023-02-12T13:54:56.570Z,21.77
2023-02-12T13:57:24.801Z,38.38
2023-02-12T13:59:54.965Z,25.02
2023-02-12T14:02:44.964Z,25.33
2023-02-12T14:05:28.597Z,18.25
2023-02-12T14:07:58.760Z,14.68
2023-02-12T14:10:30.378Z,14.52
2023-02-12T14:13:12.508Z,15.40
2023-02-12T14:15:44.757Z,14.27
2023-02-12T14:18:35.083Z,13.98
2023-02-12T14:21:41.429Z,13.30
2023-02-12T14:24:52.074Z,17.02
2023-02-12T14:27:36.093Z,16.73
2023-02-12T14:30:21.817Z,12.90
2023-02-12T14:33:11.524Z,15.45
2023-02-12T14:35:41.090Z,12.30
2023-02-12T14:38:47.418Z,12.43
2023-02-12T14:41:37.596Z,10.50
2023-02-12T14:44:42.202Z,12.40
2023-02-12T14:47:35.861Z,11.18
2023-02-12T14:50:14.469Z,11.45
2023-02-12T14:52:49.506Z,14.90
2023-02-12T14:55:26.271Z,15.00
2023-02-12T14:58:00.689Z,13.13
2023-02-12T15:00:32.554Z,13.68
2023-02-12T15:03:08.781Z,10.95
2023-02-12T15:05:44.188Z,10.45
2023-02-12T15:08:20.851Z,10.15
2023-02-12T15:10:53.980Z,14.48
2023-02-12T15:13:30.691Z,13.07
2023-02-12T15:16:05.615Z,10.93
2023-02-12T15:18:47.150Z,13.00
2023-02-12T15:21:22.107Z,11.93
2023-02-12T15:24:02.099Z,12.25
2023-02-12T15:26:32.329Z,11.43
2023-02-12T15:29:01.002Z,11.60
2023-02-12T15:31:30.973Z,11.95
2023-02-12T15:34:01.079Z,16.42
2023-02-12T15:36:34.293Z,12.70
2023-02-12T15:39:05.445Z,15.75
2023-02-12T15:41:39.284Z,27.00
2023-02-12T15:47:03.724Z,15.27
2023-02-12T15:49:37.459Z,17.73
2023-02-12T15:52:11.384Z,12.68
2023-02-12T15:57:12.576Z,12.68
2023-02-12T15:59:41.686Z,13.93
2023-02-12T16:02:20.148Z,12.82
2023-02-12T16:04:48.654Z,13.45
2023-02-12T16:07:19.363Z,16.35
2023-02-12T16:09:48.194Z,13.07
2023-02-12T16:12:19.250Z,14.43
2023-02-12T16:14:49.988Z,12.40
2023-02-12T16:17:28.634Z,12.88
2023-02-12T16:19:58.886Z,12.70
2023-02-12T16:22:33.866Z,11.57
2023-02-12T16:25:02.706Z,12.77
2023-02-12T16:27:32.978Z,14.43
2023-02-12T16:30:03.718Z,12.63
2023-02-12T16:32:36.619Z,15.60
2023-02-12T16:35:23.421Z,15.40
2023-02-12T16:37:56.473Z,14.35
2023-02-12T16:40:31.336Z,12.80
2023-02-12T16:43:02.069Z,12.65
2023-02-12T16:46:04.210Z,16.08
2023-02-12T16:48:37.817Z,17.70
2023-02-12T16:51:06.429Z,14.63
2023-02-12T16:53:43.725Z,14.60
2023-02-12T16:56:18.910Z,14.50
2023-02-12T16:58:49.052Z,14.07
2023-02-12T17:01:20.924Z,14.75
2023-02-12T17:03:50.652Z,11.48
2023-02-12T17:06:22.284Z,14.05
2023-02-12T17:08:51.851Z,14.35
2023-02-12T17:11:20.998Z,14.13
2023-02-12T17:13:50.870Z,13.88
2023-02-12T17:16:30.201Z,15.82
2023-02-12T17:18:58.723Z,16.40
2023-02-12T17:21:30.117Z,16.83
2023-02-12T17:23:59.736Z,18.05
2023-02-12T17:26:28.543Z,16.40
2023-02-12T17:28:56.711Z,17.35
2023-02-12T17:31:24.899Z,17.27
2023-02-12T17:33:52.924Z,14.35
2023-02-12T17:36:20.905Z,14.63
2023-02-12T17:38:48.888Z,17.25
2023-02-12T17:41:18.698Z,24.15
2023-02-12T17:43:46.903Z,20.17
2023-02-12T17:46:19.623Z,19.23
2023-02-12T17:48:47.679Z,18.65
2023-02-12T17:51:16.100Z,20.00
2023-02-12T17:53:44.708Z,20.58
2023-02-12T17:56:14.114Z,16.52
2023-02-12T17:58:44.431Z,14.00
2023-02-12T18:01:14.513Z,12.60
2023-02-12T18:03:42.826Z,13.23
2023-02-12T18:06:14.087Z,12.80
2023-02-12T18:08:42.203Z,13.43
2023-02-12T18:11:14.782Z,11.50
2023-02-12T18:13:44.159Z,14.18
2023-02-12T18:16:12.901Z,14.88
2023-02-12T18:18:41.482Z,12.77
2023-02-12T18:21:11.027Z,14.55
2023-02-12T18:23:40.259Z,16.13
2023-02-12T18:26:09.701Z,14.88
2023-02-12T18:28:38.244Z,14.82
2023-02-12T18:31:08.884Z,14.43
2023-02-12T18:33:38.081Z,14.05
2023-02-12T18:36:08.883Z,14.23
2023-02-12T18:38:38.653Z,14.90
2023-02-12T18:41:07.799Z,13.73
2023-02-12T18:43:36.770Z,13.45
2023-02-12T18:46:10.647Z,13.82
2023-02-12T18:48:38.940Z,13.50
2023-02-12T18:51:09.115Z,13.70
2023-02-12T18:53:37.361Z,12.68
2023-02-12T18:56:06.973Z,12.40
2023-02-12T18:58:35.520Z,12.40
2023-02-12T19:01:13.065Z,12.63
2023-02-12T19:03:42.663Z,12.50
2023-02-12T19:06:10.819Z,13.73
2023-02-12T19:08:38.888Z,14.07
2023-02-12T19:11:07.414Z,13.48
2023-02-12T19:13:35.497Z,12.80
2023-02-12T19:16:07.864Z,11.85
2023-02-12T19:18:36.361Z,13.38
2023-02-12T19:21:08.578Z,13.65
2023-02-12T19:23:38.365Z,16.67
2023-02-12T19:26:07.484Z,18.27
2023-02-12T19:28:35.961Z,17.33
2023-02-12T19:31:12.410Z,16.83
2023-02-12T19:33:42.080Z,15.27
2023-02-12T19:36:13.344Z,18.48
2023-02-12T19:38:41.887Z,19.08
2023-02-12T19:41:12.327Z,22.17
2023-02-12T19:43:40.646Z,17.88
2023-02-12T19:46:10.218Z,16.00
2023-02-12T19:48:38.530Z,14.38
2023-02-12T19:51:07.211Z,14.27
2023-02-12T19:53:36.795Z,14.40
2023-02-12T19:56:06.547Z,13.70
2023-02-12T19:58:35.248Z,13.82
2023-02-12T20:01:10.390Z,13.85
2023-02-12T20:03:38.537Z,14.20
2023-02-12T20:06:09.671Z,14.50
2023-02-12T20:08:40.065Z,14.15
2023-02-12T20:11:09.199Z,13.40
2023-02-12T20:13:37.313Z,14.15
2023-02-12T20:16:06.164Z,13.68
2023-02-12T20:18:35.154Z,14.05
2023-02-12T20:21:03.296Z,13.18
2023-02-12T20:23:31.318Z,13.25
2023-02-12T20:26:00.827Z,12.60
2023-02-12T20:28:28.872Z,12.98
2023-02-12T20:30:57.145Z,13.02
2023-02-12T20:33:25.360Z,12.63
2023-02-12T20:35:58.863Z,12.27
2023-02-12T20:38:26.933Z,12.07
2023-02-12T20:40:55.267Z,11.98
2023-02-12T20:43:24.845Z,12.48
2023-02-12T20:45:52.811Z,11.40
2023-02-12T20:48:21.655Z,11.63
2023-02-12T20:50:49.631Z,13.35
2023-02-12T20:53:17.633Z,11.63
2023-02-12T20:55:45.623Z,11.25
2023-02-12T20:58:13.647Z,11.07
2023-02-12T21:00:43.333Z,11.45
2023-02-12T21:03:11.499Z,10.63
2023-02-12T21:05:39.470Z,10.00
2023-02-12T21:08:07.541Z,10.38
2023-02-12T21:10:35.494Z,10.82
2023-02-12T21:13:03.483Z,10.23
2023-02-12T21:15:31.398Z,11.43
2023-02-12T21:18:00.763Z,11.23
2023-02-12T21:20:28.949Z,11.82
2023-02-12T21:22:56.901Z,11.30
2023-02-12T21:25:24.898Z,12.75
2023-02-12T21:27:52.863Z,13.55
2023-02-12T21:30:20.888Z,14.35
2023-02-12T21:32:48.873Z,12.38
2023-02-12T21:35:18.426Z,12.55
2023-02-12T21:37:47.350Z,13.07
2023-02-12T21:40:16.692Z,13.15
2023-02-12T21:42:45.583Z,13.05
2023-02-12T21:45:17.453Z,12.20
2023-02-12T21:47:46.284Z,12.77
2023-02-12T21:50:19.307Z,12.18
2023-02-12T21:52:48.633Z,12.15
2023-02-12T21:55:16.688Z,12.88
2023-02-12T21:57:44.640Z,11.95
2023-02-12T22:00:13.658Z,12.35
2023-02-12T22:02:41.625Z,10.98
2023-02-12T22:05:10.028Z,11.75
2023-02-12T22:07:37.919Z,11.75
2023-02-12T22:10:09.464Z,12.18
2023-02-12T22:12:37.446Z,13.55
2023-02-12T22:15:06.012Z,10.93
2023-02-12T22:17:34.342Z,11.75
2023-02-12T22:20:02.330Z,10.98
2023-02-12T22:22:30.219Z,12.73
2023-02-12T22:24:58.123Z,12.90
2023-02-12T22:27:27.436Z,12.02
2023-02-12T22:29:55.356Z,12.88
2023-02-12T22:32:23.337Z,14.02
2023-02-12T22:34:51.317Z,12.70
2023-02-12T22:37:19.236Z,13.35
2023-02-12T22:39:47.194Z,13.18
2023-02-12T22:42:15.081Z,12.45
2023-02-12T22:44:44.370Z,13.38
2023-02-12T22:47:12.223Z,12.85
2023-02-12T22:49:40.126Z,13.05
2023-02-12T22:52:08.041Z,13.65
2023-02-12T22:54:35.962Z,12.75
2023-02-12T22:57:03.865Z,12.60
2023-02-12T22:59:31.945Z,10.82
2023-02-12T23:02:04.244Z,13.25
2023-02-12T23:04:32.399Z,12.70
2023-02-12T23:07:00.295Z,14.18
2023-02-12T23:09:28.266Z,15.02
2023-02-12T23:11:56.180Z,15.55
2023-02-12T23:14:24.331Z,14.57
2023-02-12T23:16:52.272Z,14.60
2023-02-12T23:19:21.766Z,14.13
2023-02-12T23:21:49.748Z,15.50
2023-02-12T23:24:17.714Z,15.15
2023-02-12T23:26:45.933Z,15.32
2023-02-12T23:29:14.044Z,14.73
2023-02-12T23:31:42.154Z,13.45
2023-02-12T23:34:10.306Z,14.25
2023-02-12T23:36:39.840Z,14.57
2023-02-12T23:39:09.559Z,15.80
2023-02-12T23:41:37.589Z,15.93
2023-02-12T23:44:06.196Z,14.80
2023-02-12T23:46:34.143Z,14.30
2023-02-12T23:49:02.314Z,13.93
2023-02-12T23:51:30.413Z,13.57
2023-02-12T23:53:59.756Z,13.57
2023-02-12T23:56:28.039Z,13.40
2023-02-12T23:58:57.170Z,13.15
